Time;durP1;ratioP1;P1;durP2;ratioP2;P2;SDS_P1;SDS_P2;PMS_P1;PMS_P2;Temp;Humidity;BMP_temperature;BMP_pressure;BME280_temperature;BME280_humidity;BME280_pressure;Samples;Min_cycle;Max_cycle;Signal;HPM_P1;HPM_P2
2021/05/21 00:00:41;;;;;;;;;;;10.40;1.00;;;;;;5030758;28;19971;-74
2021/05/21 00:03:07;;;;;;;;;;;10.40;1.00;;;;;;5022275;28;19914;-74
2021/05/21 00:05:32;;;;;;;;;;;10.40;1.00;;;;;;5026184;28;19963;-74
2021/05/21 00:07:58;;;;;;;;;;;10.40;1.00;;;;;;5030166;28;19917;-74
2021/05/21 00:10:24;;;;;;;;;;;10.40;7.20;;;;;;5030381;28;19952;-74
2021/05/21 00:12:49;;;;;;;;;;;10.40;1.00;;;;;;5011155;28;19921;-74
2021/05/21 00:15:15;;;;;;;;;;;10.30;2.40;;;;;;5010911;28;20564;-74
2021/05/21 00:17:41;;;;;;;;;;;10.30;1.00;;;;;;5011708;28;19913;-74
2021/05/21 00:20:07;;;;;;;;;;;10.30;1.00;;;;;;5010103;28;19955;-74
2021/05/21 00:22:32;;;;;;;;;;;10.20;1.00;;;;;;5010288;28;19913;-74
2021/05/21 00:24:57;;;;;;;;;;;10.10;1.00;;;;;;5026324;28;19913;-74
2021/05/21 00:27:23;;;;;;;;;;;10.10;94.70;;;;;;5016003;28;20389;-75
2021/05/21 00:29:48;;;;;;;;;;;10.00;99.90;;;;;;5028934;28;19913;-74
2021/05/21 00:32:14;;;;;;;;;;;10.00;99.90;;;;;;5024294;28;19917;-74
2021/05/21 00:34:39;;;;;;;;;;;10.00;99.90;;;;;;5031076;28;20000;-74
2021/05/21 00:37:05;;;;;;;;;;;10.00;1.00;;;;;;5014689;28;19917;-74
2021/05/21 00:39:30;;;;;;;;;;;10.00;1.00;;;;;;5010957;28;19932;-74
2021/05/21 00:41:56;;;;;;;;;;;10.00;1.00;;;;;;5010932;28;20280;-74
2021/05/21 00:44:21;;;;;;;;;;;9.80;47.60;;;;;;5010662;28;19910;-74
2021/05/21 00:46:47;;;;;;;;;;;9.70;99.90;;;;;;5008417;28;19927;-73
2021/05/21 00:49:17;;;;;;;;;;;9.70;99.90;;;;;;5020914;28;19958;-74
2021/05/21 00:51:46;;;;;;;;;;;9.70;99.90;;;;;;5030133;28;19920;-74
2021/05/21 00:54:18;;;;;;;;;;;9.70;99.90;;;;;;5031729;28;19909;-74
2021/05/21 00:56:44;;;;;;;;;;;9.70;99.90;;;;;;5031446;28;19931;-74
2021/05/21 00:59:10;;;;;;;;;;;9.70;99.90;;;;;;5030343;28;20390;-74
2021/05/21 01:01:36;;;;;;;;;;;9.70;99.90;;;;;;5029735;28;20015;-74
2021/05/21 01:04:02;;;;;;;;;;;9.70;99.90;;;;;;5022112;28;19920;-74
2021/05/21 01:06:27;;;;;;;;;;;9.80;99.90;;;;;;5031454;28;19913;-74
2021/05/21 01:08:56;;;;;;;;;;;9.80;99.90;;;;;;5030538;28;20382;-74
2021/05/21 01:11:22;;;;;;;;;;;9.80;99.90;;;;;;5021930;28;19925;-74
2021/05/21 01:13:47;;;;;;;;;;;9.90;99.90;;;;;;5010983;28;19913;-74
2021/05/21 01:16:13;;;;;;;;;;;9.80;99.90;;;;;;5009171;28;19981;-76
2021/05/21 01:18:38;;;;;;;;;;;9.80;99.90;;;;;;5008898;28;19909;-74
2021/05/21 01:21:04;;;;;;;;;;;9.80;99.90;;;;;;5007703;28;19936;-74
2021/05/21 01:23:30;;;;;;;;;;;9.90;99.90;;;;;;5016147;28;20389;-75
2021/05/21 01:25:56;;;;;;;;;;;9.90;99.90;;;;;;5015636;28;20381;-75
2021/05/21 01:28:21;;;;;;;;;;;9.90;99.90;;;;;;5021040;28;19910;-74
2021/05/21 01:30:47;;;;;;;;;;;9.90;99.90;;;;;;5027687;28;19917;-74
2021/05/21 01:33:13;;;;;;;;;;;9.90;99.90;;;;;;5028360;28;20381;-75
2021/05/21 01:35:39;;;;;;;;;;;9.80;99.90;;;;;;5022778;28;19909;-75
2021/05/21 01:38:05;;;;;;;;;;;9.80;99.90;;;;;;5009131;28;19910;-74
2021/05/21 01:40:31;;;;;;;;;;;9.70;99.90;;;;;;5008367;28;20301;-74
2021/05/21 01:42:57;;;;;;;;;;;9.80;1.00;;;;;;5009006;28;19913;-74
2021/05/21 01:45:22;;;;;;;;;;;9.90;99.90;;;;;;5009451;28;19920;-74
2021/05/21 01:47:48;;;;;;;;;;;9.80;99.90;;;;;;5008451;28;19967;-74
2021/05/21 01:50:13;;;;;;;;;;;9.80;99.90;;;;;;5008698;28;19932;-74
2021/05/21 01:52:39;;;;;;;;;;;9.80;99.90;;;;;;5023876;28;19996;-74
2021/05/21 01:55:04;;;;;;;;;;;9.70;1.00;;;;;;5034393;28;19909;-74
2021/05/21 01:57:31;;;;;;;;;;;9.70;1.00;;;;;;5034830;28;19917;-74
2021/05/21 01:59:57;;;;;;;;;;;9.70;1.00;;;;;;5033495;28;19917;-74
2021/05/21 02:02:22;;;;;;;;;;;9.80;1.00;;;;;;5030353;28;19916;-74
2021/05/21 02:04:48;;;;;;;;;;;9.70;1.00;;;;;;5022883;28;20398;-74
2021/05/21 02:07:14;;;;;;;;;;;9.70;1.00;;;;;;5014841;28;19978;-74
2021/05/21 02:09:45;;;;;;;;;;;9.70;1.00;;;;;;5013945;28;19928;-74
2021/05/21 02:12:10;;;;;;;;;;;9.80;1.00;;;;;;5013470;28;20239;-74
2021/05/21 02:14:36;;;;;;;;;;;9.80;1.00;;;;;;5016008;28;19909;-74
2021/05/21 02:17:01;;;;;;;;;;;9.80;1.00;;;;;;5033709;28;20391;-74
2021/05/21 02:19:27;;;;;;;;;;;9.70;1.00;;;;;;5033168;28;19975;-74
2021/05/21 02:21:52;;;;;;;;;;;9.70;1.00;;;;;;5032828;28;20353;-74
2021/05/21 02:24:18;;;;;;;;;;;9.60;1.00;;;;;;5030532;28;19913;-74
2021/05/21 02:26:43;;;;;;;;;;;9.60;1.00;;;;;;5022303;28;20623;-74
2021/05/21 02:29:09;;;;;;;;;;;9.60;99.90;;;;;;5013578;28;20391;-74
2021/05/21 02:31:35;;;;;;;;;;;9.50;99.90;;;;;;5012600;28;19921;-74
2021/05/21 02:34:01;;;;;;;;;;;9.50;99.90;;;;;;5013244;28;20146;-74
2021/05/21 02:36:26;;;;;;;;;;;9.40;1.00;;;;;;5014433;28;19914;-74
2021/05/21 02:38:52;;;;;;;;;;;9.40;1.00;;;;;;5013158;28;19910;-74
2021/05/21 02:41:17;;;;;;;;;;;9.40;1.00;;;;;;5012709;28;20455;-74
2021/05/21 02:43:43;;;;;;;;;;;9.50;1.00;;;;;;5012709;28;20003;-74
2021/05/21 02:46:08;;;;;;;;;;;9.50;1.00;;;;;;5010955;28;19960;-75
2021/05/21 02:48:34;;;;;;;;;;;9.50;1.00;;;;;;5012032;28;19911;-74
2021/05/21 02:50:59;;;;;;;;;;;9.50;1.00;;;;;;5011841;28;19919;-74
2021/05/21 02:53:25;;;;;;;;;;;9.50;1.00;;;;;;5013485;28;19914;-74
2021/05/21 02:55:50;;;;;;;;;;;9.50;1.00;;;;;;5012102;28;20282;-73
2021/05/21 02:58:16;;;;;;;;;;;9.40;1.00;;;;;;5012928;28;19993;-75
2021/05/21 03:00:41;;;;;;;;;;;9.40;1.00;;;;;;5012213;28;19910;-74
2021/05/21 03:03:07;;;;;;;;;;;9.30;1.00;;;;;;5019454;28;19964;-75
2021/05/21 03:05:32;;;;;;;;;;;9.20;1.00;;;;;;5027539;28;19965;-75
2021/05/21 03:07:58;;;;;;;;;;;9.30;1.00;;;;;;5032175;28;19916;-74
2021/05/21 03:10:24;;;;;;;;;;;9.30;1.00;;;;;;5030188;28;19924;-75
2021/05/21 03:12:50;;;;;;;;;;;9.30;1.00;;;;;;5011872;28;19960;-74
2021/05/21 03:15:16;;;;;;;;;;;9.30;1.00;;;;;;5017886;28;19909;-74
2021/05/21 03:17:41;;;;;;;;;;;9.20;1.00;;;;;;5022960;28;20341;-74
2021/05/21 03:20:07;;;;;;;;;;;9.20;1.00;;;;;;5030483;28;19913;-74
2021/05/21 03:22:33;;;;;;;;;;;9.20;1.00;;;;;;5032953;28;19909;-74
2021/05/21 03:25:02;;;;;;;;;;;9.20;1.00;;;;;;5029014;28;19909;-74
2021/05/21 03:27:27;;;;;;;;;;;9.10;1.00;;;;;;5017956;28;19916;-75
2021/05/21 03:29:53;;;;;;;;;;;9.10;1.00;;;;;;5030863;28;20306;-75
2021/05/21 03:32:19;;;;;;;;;;;9.10;1.00;;;;;;5032225;28;20251;-75
2021/05/21 03:34:44;;;;;;;;;;;9.10;1.00;;;;;;5031361;28;19920;-75
2021/05/21 03:37:09;;;;;;;;;;;9.10;1.00;;;;;;5013576;28;20442;-75
2021/05/21 03:39:35;;;;;;;;;;;9.10;1.00;;;;;;5010414;28;19959;-74
2021/05/21 03:42:00;;;;;;;;;;;9.00;1.00;;;;;;5011354;28;20357;-74
2021/05/21 03:44:26;;;;;;;;;;;9.00;1.00;;;;;;5010964;28;19920;-75
2021/05/21 03:46:51;;;;;;;;;;;9.00;1.00;;;;;;5011762;28;20318;-74
2021/05/21 03:49:17;;;;;;;;;;;9.10;1.00;;;;;;5009814;28;20393;-74
2021/05/21 03:51:42;;;;;;;;;;;9.00;1.00;;;;;;5011151;28;20289;-75
2021/05/21 03:54:08;;;;;;;;;;;9.10;1.00;;;;;;5012820;28;19916;-75
2021/05/21 03:56:34;;;;;;;;;;;9.10;1.00;;;;;;5011386;28;19916;-74
2021/05/21 03:59:00;;;;;;;;;;;9.10;1.00;;;;;;5010843;28;19956;-75
2021/05/21 04:01:25;;;;;;;;;;;9.10;1.00;;;;;;5010304;28;19924;-74
2021/05/21 04:03:51;;;;;;;;;;;9.20;1.00;;;;;;5021492;28;19913;-74
2021/05/21 04:06:16;;;;;;;;;;;9.20;1.00;;;;;;5031556;28;20008;-73
2021/05/21 04:08:42;;;;;;;;;;;9.30;1.00;;;;;;5032333;28;20365;-74
2021/05/21 04:11:08;;;;;;;;;;;9.40;1.00;;;;;;5026119;28;19924;-74
2021/05/21 04:13:33;;;;;;;;;;;9.40;1.00;;;;;;5011914;28;19909;-74
2021/05/21 04:15:59;;;;;;;;;;;9.60;1.00;;;;;;5012170;28;20002;-74
2021/05/21 04:18:24;;;;;;;;;;;9.70;1.00;;;;;;5011273;28;20016;-74
2021/05/21 04:20:50;;;;;;;;;;;9.80;1.00;;;;;;5011982;28;20325;-74
2021/05/21 04:23:15;;;;;;;;;;;9.90;1.00;;;;;;5015062;28;19932;-75
2021/05/21 04:25:41;;;;;;;;;;;10.00;99.90;;;;;;5021489;28;19948;-74
2021/05/21 04:28:06;;;;;;;;;;;10.10;99.90;;;;;;5026876;28;19935;-74
2021/05/21 04:30:32;;;;;;;;;;;10.20;99.90;;;;;;5020261;28;20398;-74
2021/05/21 04:32:57;;;;;;;;;;;10.30;99.90;;;;;;5011990;28;19932;-74
2021/05/21 04:35:23;;;;;;;;;;;10.30;99.90;;;;;;5023248;28;19913;-74
2021/05/21 04:37:49;;;;;;;;;;;10.50;91.70;;;;;;5021501;28;19917;-74
2021/05/21 04:40:14;;;;;;;;;;;10.70;1.00;;;;;;5022136;28;19917;-74
2021/05/21 04:42:40;;;;;;;;;;;10.80;1.00;;;;;;5018325;28;20429;-74
2021/05/21 04:45:07;;;;;;;;;;;10.90;1.00;;;;;;5018723;28;19913;-74
2021/05/21 04:47:33;;;;;;;;;;;11.00;18.30;;;;;;5070210;22;19967;-69
2021/05/21 04:49:58;;;;;;;;;;;11.10;1.00;;;;;;5056145;28;20388;-69
2021/05/21 04:52:24;;;;;;;;;;;11.10;99.90;;;;;;5056643;28;19912;-70
2021/05/21 04:54:49;;;;;;;;;;;11.30;65.50;;;;;;5065287;28;19916;-70
2021/05/21 04:57:15;;;;;;;;;;;11.40;1.00;;;;;;5040548;28;19967;-67
2021/05/21 04:59:40;;;;;;;;;;;11.60;99.90;;;;;;5043362;28;19913;-68
2021/05/21 05:02:06;;;;;;;;;;;11.90;1.00;;;;;;5034548;28;19913;-69
2021/05/21 05:04:32;;;;;;;;;;;12.20;1.00;;;;;;5037263;28;20373;-69
2021/05/21 05:06:57;;;;;;;;;;;12.40;1.00;;;;;;5040569;28;20350;-69
2021/05/21 05:09:23;;;;;;;;;;;12.60;16.20;;;;;;5035590;28;19924;-67
2021/05/21 05:11:49;;;;;;;;;;;12.70;1.00;;;;;;5034974;28;19963;-70
2021/05/21 05:14:14;;;;;;;;;;;12.70;1.00;;;;;;5039563;28;19996;-68
2021/05/21 05:16:40;;;;;;;;;;;12.40;1.00;;;;;;5036969;28;20286;-68
2021/05/21 05:19:06;;;;;;;;;;;12.70;1.00;;;;;;5033595;28;19917;-66
2021/05/21 05:21:33;;;;;;;;;;;12.90;99.90;;;;;;5036072;28;19917;-67
2021/05/21 05:24:00;;;;;;;;;;;13.20;99.90;;;;;;5040296;28;19913;-68
2021/05/21 05:26:25;;;;;;;;;;;13.30;99.90;;;;;;5036138;28;19914;-69
2021/05/21 05:28:51;;;;;;;;;;;13.40;99.90;;;;;;5017346;28;19920;-69
2021/05/21 05:31:19;;;;;;;;;;;13.70;85.00;;;;;;5026457;28;19928;-68
2021/05/21 05:33:44;;;;;;;;;;;14.10;1.00;;;;;;5034056;28;20265;-69
2021/05/21 05:36:09;;;;;;;;;;;14.30;1.00;;;;;;5027567;28;19913;-69
2021/05/21 05:38:35;;;;;;;;;;;14.50;1.00;;;;;;5031786;28;19913;-69
2021/05/21 05:41:01;;;;;;;;;;;14.80;1.00;;;;;;5043707;28;19947;-69
2021/05/21 05:43:26;;;;;;;;;;;15.10;1.00;;;;;;5036182;28;19940;-70
2021/05/21 05:45:52;;;;;;;;;;;15.10;1.00;;;;;;5031163;28;19917;-71
2021/05/21 05:48:19;;;;;;;;;;;15.40;1.00;;;;;;5041993;28;19913;-69
2021/05/21 05:50:49;;;;;;;;;;;15.60;1.00;;;;;;5035534;28;20308;-70
2021/05/21 05:53:15;;;;;;;;;;;15.90;1.00;;;;;;5035661;28;19955;-70
2021/05/21 05:55:41;;;;;;;;;;;16.20;99.90;;;;;;5035966;28;19928;-69
2021/05/21 05:58:08;;;;;;;;;;;16.70;99.90;;;;;;5042507;28;20279;-68
2021/05/21 06:00:33;;;;;;;;;;;17.20;99.90;;;;;;5031187;28;19932;-70
2021/05/21 06:03:09;;;;;;;;;;;17.80;99.90;;;;;;5039254;28;19913;-69
2021/05/21 06:05:35;;;;;;;;;;;18.20;99.90;;;;;;5036166;28;19920;-70
2021/05/21 06:08:02;;;;;;;;;;;18.00;99.90;;;;;;5040919;28;19919;-69
2021/05/21 06:10:28;;;;;;;;;;;17.70;99.90;;;;;;5035344;28;19917;-69
2021/05/21 06:12:58;;;;;;;;;;;17.40;99.90;;;;;;5037737;28;19928;-70
2021/05/21 06:15:23;;;;;;;;;;;17.20;99.90;;;;;;5035139;28;19912;-70
2021/05/21 06:17:51;;;;;;;;;;;16.40;99.90;;;;;;5035575;28;19923;-69
2021/05/21 06:20:17;;;;;;;;;;;15.80;99.90;;;;;;5035264;28;19924;-70
2021/05/21 06:22:42;;;;;;;;;;;15.60;99.90;;;;;;5035336;28;20383;-70
2021/05/21 06:25:09;;;;;;;;;;;15.50;99.90;;;;;;5035990;28;19919;-70
2021/05/21 06:27:35;;;;;;;;;;;15.60;99.90;;;;;;5034837;28;20015;-70
2021/05/21 06:30:02;;;;;;;;;;;15.50;99.90;;;;;;5034728;28;20079;-69
2021/05/21 06:32:27;;;;;;;;;;;15.40;99.90;;;;;;5032342;28;19999;-70
2021/05/21 06:34:53;;;;;;;;;;;15.30;99.90;;;;;;5031732;28;20095;-69
2021/05/21 06:37:18;;;;;;;;;;;14.90;99.90;;;;;;5038742;28;19913;-70
2021/05/21 06:39:44;;;;;;;;;;;14.80;99.90;;;;;;5037190;28;19913;-70
2021/05/21 06:42:10;;;;;;;;;;;14.60;99.90;;;;;;5022408;28;19912;-69
2021/05/21 06:44:35;;;;;;;;;;;14.80;99.90;;;;;;5039739;28;20004;-69
2021/05/21 06:47:01;;;;;;;;;;;14.90;99.90;;;;;;5037330;28;19928;-70
2021/05/21 06:49:26;;;;;;;;;;;14.90;99.90;;;;;;5040573;28;20104;-70
2021/05/21 06:51:52;;;;;;;;;;;14.70;99.90;;;;;;5039904;28;21334;-70
2021/05/21 06:54:18;;;;;;;;;;;14.50;99.90;;;;;;5039241;28;19959;-68
2021/05/21 06:56:44;;;;;;;;;;;14.50;99.90;;;;;;5036800;28;19917;-71
2021/05/21 06:59:09;;;;;;;;;;;14.70;99.90;;;;;;5023811;28;19917;-70
2021/05/21 07:01:35;;;;;;;;;;;15.00;99.90;;;;;;5037405;28;19939;-69
2021/05/21 07:04:00;;;;;;;;;;;15.40;99.90;;;;;;5039211;28;19916;-69
2021/05/21 07:06:26;;;;;;;;;;;15.80;99.90;;;;;;5035757;28;19928;-69
2021/05/21 07:08:51;;;;;;;;;;;16.20;99.90;;;;;;5038250;28;19924;-68
2021/05/21 07:11:17;;;;;;;;;;;16.80;99.90;;;;;;5043126;28;19925;-69
2021/05/21 07:13:43;;;;;;;;;;;17.40;99.90;;;;;;5042636;28;19959;-69
2021/05/21 07:16:08;;;;;;;;;;;17.80;99.90;;;;;;5032178;28;19920;-70
2021/05/21 07:18:34;;;;;;;;;;;17.90;99.90;;;;;;5036797;28;19917;-70
2021/05/21 07:21:02;;;;;;;;;;;17.90;99.90;;;;;;5037864;28;19914;-68
2021/05/21 07:23:28;;;;;;;;;;;18.10;99.90;;;;;;5039806;28;20493;-70
2021/05/21 07:25:53;;;;;;;;;;;18.20;99.90;;;;;;5043494;28;19928;-70
2021/05/21 07:28:19;;;;;;;;;;;18.40;99.90;;;;;;5042978;28;19913;-70
2021/05/21 07:30:45;;;;;;;;;;;18.60;99.90;;;;;;5044511;28;19917;-70
2021/05/21 07:33:11;;;;;;;;;;;19.00;99.90;;;;;;5038935;28;20261;-70
2021/05/21 07:35:36;;;;;;;;;;;19.30;99.90;;;;;;5040545;28;19978;-70
2021/05/21 07:38:02;;;;;;;;;;;19.20;99.90;;;;;;5041708;28;19920;-69
2021/05/21 07:40:28;;;;;;;;;;;19.20;99.90;;;;;;5045195;28;20350;-69
2021/05/21 07:42:53;;;;;;;;;;;18.90;99.90;;;;;;5038161;28;19924;-70
2021/05/21 07:45:19;;;;;;;;;;;18.50;99.90;;;;;;5036773;28;19913;-69
2021/05/21 07:47:45;;;;;;;;;;;18.20;99.90;;;;;;5041851;28;19931;-70
2021/05/21 07:50:11;;;;;;;;;;;18.20;99.90;;;;;;5034849;28;19913;-70
2021/05/21 07:52:37;;;;;;;;;;;18.30;99.90;;;;;;5039894;28;19917;-70
2021/05/21 07:55:05;;;;;;;;;;;18.40;99.90;;;;;;5036279;28;20326;-69
2021/05/21 07:57:31;;;;;;;;;;;18.20;99.90;;;;;;5035987;28;20341;-69
2021/05/21 07:59:56;;;;;;;;;;;18.00;99.90;;;;;;5041601;28;19929;-70
2021/05/21 08:02:22;;;;;;;;;;;17.90;99.90;;;;;;5041906;28;19917;-70
2021/05/21 08:04:47;;;;;;;;;;;17.80;99.90;;;;;;5251249;22;20307;-69
2021/05/21 08:07:13;;;;;;;;;;;18.10;99.90;;;;;;5029401;28;20025;-70
2021/05/21 08:09:40;;;;;;;;;;;18.30;99.90;;;;;;5010242;28;20011;-68
2021/05/21 08:12:06;;;;;;;;;;;18.40;99.90;;;;;;5026684;28;20596;-72
2021/05/21 08:14:31;;;;;;;;;;;18.50;99.90;;;;;;5028226;28;19913;-71
2021/05/21 08:16:57;;;;;;;;;;;18.70;99.90;;;;;;5017342;28;20339;-70
2021/05/21 08:19:22;;;;;;;;;;;18.90;99.90;;;;;;5008382;28;19916;-69
2021/05/21 08:21:48;;;;;;;;;;;19.10;99.90;;;;;;5028815;28;20372;-71
2021/05/21 08:24:13;;;;;;;;;;;19.10;99.90;;;;;;5024434;28;19917;-71
2021/05/21 08:26:39;;;;;;;;;;;19.10;99.90;;;;;;5024283;28;19913;-71
2021/05/21 08:29:08;;;;;;;;;;;19.10;99.90;;;;;;5011877;28;19913;-71
2021/05/21 08:31:33;;;;;;;;;;;18.90;99.90;;;;;;5015346;28;19917;-71
2021/05/21 08:33:58;;;;;;;;;;;18.90;99.90;;;;;;5015876;28;20262;-70
2021/05/21 08:36:24;;;;;;;;;;;19.10;99.90;;;;;;5008048;28;19963;-70
2021/05/21 08:38:50;;;;;;;;;;;19.20;99.90;;;;;;5011465;28;20413;-70
2021/05/21 08:41:16;;;;;;;;;;;19.20;99.90;;;;;;5019771;28;19913;-69
2021/05/21 08:43:46;;;;;;;;;;;18.90;99.90;;;;;;5015020;28;19917;-69
2021/05/21 08:46:12;;;;;;;;;;;18.70;99.90;;;;;;5015606;28;19976;-69
2021/05/21 08:48:38;;;;;;;;;;;18.20;99.90;;;;;;5015897;28;19924;-69
2021/05/21 08:51:03;;;;;;;;;;;17.90;99.90;;;;;;5012946;28;19921;-69
2021/05/21 08:53:29;;;;;;;;;;;17.60;99.90;;;;;;5014563;28;19993;-69
2021/05/21 08:55:54;;;;;;;;;;;17.40;99.90;;;;;;5014070;28;19925;-71
2021/05/21 08:58:20;;;;;;;;;;;17.30;99.90;;;;;;5017335;28;19974;-69
2021/05/21 09:00:45;;;;;;;;;;;17.20;99.90;;;;;;5010513;28;19909;-70
2021/05/21 09:03:20;;;;;;;;;;;17.10;99.90;;;;;;5014841;28;19951;-71
2021/05/21 09:06:21;;;;;;;;;;;17.00;99.90;;;;;;5026231;28;20601;-71
2021/05/21 09:08:57;;;;;;;;;;;16.90;99.90;;;;;;5025046;28;20374;-71
2021/05/21 09:11:22;;;;;;;;;;;16.50;99.90;;;;;;5028099;28;19932;-71
2021/05/21 09:13:51;;;;;;;;;;;16.30;99.90;;;;;;5030980;28;20023;-71
2021/05/21 09:16:20;;;;;;;;;;;16.00;99.90;;;;;;5027017;28;19936;-70
2021/05/21 09:18:58;;;;;;;;;;;15.80;99.90;;;;;;5030745;28;19913;-71
2021/05/21 09:21:24;;;;;;;;;;;15.70;99.90;;;;;;5029374;28;19921;-70
2021/05/21 09:24:03;;;;;;;;;;;15.60;99.90;;;;;;5017612;28;19975;-70
2021/05/21 09:26:39;;;;;;;;;;;15.40;99.90;;;;;;5030490;28;20023;-70
2021/05/21 09:29:04;;;;;;;;;;;15.20;99.90;;;;;;5011343;28;19925;-71
2021/05/21 09:31:30;;;;;;;;;;;15.00;99.90;;;;;;5013101;28;19918;-71
2021/05/21 09:33:59;;;;;;;;;;;14.90;99.90;;;;;;5022035;28;19916;-71
2021/05/21 09:36:25;;;;;;;;;;;14.80;99.90;;;;;;5026279;28;19921;-70
2021/05/21 09:38:55;;;;;;;;;;;14.80;99.90;;;;;;5028600;28;19968;-69
2021/05/21 09:41:27;;;;;;;;;;;14.70;99.90;;;;;;5028102;28;20461;-69
2021/05/21 09:43:53;;;;;;;;;;;14.70;1.00;;;;;;5028050;28;19921;-70
2021/05/21 09:46:19;;;;;;;;;;;14.60;1.00;;;;;;5026717;28;19917;-70
2021/05/21 09:48:44;;;;;;;;;;;14.70;1.00;;;;;;5019038;28;20255;-69
2021/05/21 09:51:11;;;;;;;;;;;14.70;1.00;;;;;;5019528;28;19922;-69
2021/05/21 09:53:37;;;;;;;;;;;14.60;1.00;;;;;;5027228;28;19913;-69
2021/05/21 09:56:04;;;;;;;;;;;14.50;1.00;;;;;;5027160;28;20416;-68
2021/05/21 09:58:30;;;;;;;;;;;14.50;1.00;;;;;;5027817;28;19952;-71
2021/05/21 10:01:05;;;;;;;;;;;14.40;99.90;;;;;;5024580;28;20385;-70
2021/05/21 10:03:30;;;;;;;;;;;14.50;1.00;;;;;;5016814;28;20054;-71
2021/05/21 10:05:56;;;;;;;;;;;14.50;1.00;;;;;;5026391;28;20374;-70
2021/05/21 10:08:22;;;;;;;;;;;14.50;1.00;;;;;;5027143;28;20036;-70
2021/05/21 10:10:47;;;;;;;;;;;14.60;99.90;;;;;;5024091;28;20319;-69
2021/05/21 10:13:13;;;;;;;;;;;14.60;1.00;;;;;;5030669;28;19917;-69
2021/05/21 10:15:39;;;;;;;;;;;14.70;1.00;;;;;;5021907;28;19963;-70
2021/05/21 10:18:05;;;;;;;;;;;14.80;1.00;;;;;;5023840;28;20003;-69
2021/05/21 10:20:31;;;;;;;;;;;14.90;1.00;;;;;;5029836;28;19917;-68
2021/05/21 10:22:56;;;;;;;;;;;15.10;1.00;;;;;;5027716;28;19929;-70
2021/05/21 10:25:24;;;;;;;;;;;15.30;99.90;;;;;;5026829;28;20017;-69
2021/05/21 10:27:54;;;;;;;;;;;15.30;99.90;;;;;;5026763;28;20019;-69
2021/05/21 10:30:21;;;;;;;;;;;15.30;99.90;;;;;;5018982;28;20404;-70
2021/05/21 10:32:47;;;;;;;;;;;15.20;99.90;;;;;;5023904;28;20518;-70
2021/05/21 10:35:17;;;;;;;;;;;14.90;1.00;;;;;;5028824;28;19916;-70
2021/05/21 10:37:44;;;;;;;;;;;14.80;99.90;;;;;;5029626;28;19909;-70
2021/05/21 10:40:10;;;;;;;;;;;14.60;1.00;;;;;;5022672;28;19917;-71
2021/05/21 10:42:41;;;;;;;;;;;14.30;1.00;;;;;;5026626;28;20050;-72
2021/05/21 10:45:11;;;;;;;;;;;14.20;89.00;;;;;;5019327;28;19914;-69
2021/05/21 10:47:37;;;;;;;;;;;14.30;1.00;;;;;;5020962;28;19956;-70
2021/05/21 10:50:03;;;;;;;;;;;14.20;1.00;;;;;;5020379;28;19996;-70
2021/05/21 10:52:47;;;;;;;;;;;14.20;99.90;;;;;;5023026;28;20008;-70
2021/05/21 10:55:13;;;;;;;;;;;14.20;99.90;;;;;;5028843;28;20031;-74
2021/05/21 10:57:39;;;;;;;;;;;14.20;99.90;;;;;;5030612;28;20541;-75
2021/05/21 11:00:05;;;;;;;;;;;14.20;99.90;;;;;;5027462;28;19916;-72
2021/05/21 11:02:43;;;;;;;;;;;14.10;1.00;;;;;;5022503;28;19921;-71
2021/05/21 11:05:24;;;;;;;;;;;14.10;1.00;;;;;;4997289;28;19924;-72
2021/05/21 11:07:55;;;;;;;;;;;14.10;1.00;;;;;;5030653;28;19913;-72
2021/05/21 11:10:25;;;;;;;;;;;14.00;99.90;;;;;;5029256;28;19913;-70
2021/05/21 11:13:00;;;;;;;;;;;14.00;99.90;;;;;;5017020;28;19919;-73
2021/05/21 11:15:43;;;;;;;;;;;13.90;99.90;;;;;;5012440;28;19913;-70
2021/05/21 11:18:15;;;;;;;;;;;13.90;99.90;;;;;;5029624;28;19924;-72
2021/05/21 11:20:59;;;;;;;;;;;13.90;99.90;;;;;;5028413;28;19960;-69
2021/05/21 11:23:35;;;;;;;;;;;13.70;99.90;;;;;;5017561;28;20370;-70
2021/05/21 11:26:02;;;;;;;;;;;13.60;99.90;;;;;;5011845;28;19913;-70
2021/05/21 11:28:29;;;;;;;;;;;13.60;1.00;;;;;;5021277;28;19917;-70
2021/05/21 11:30:54;;;;;;;;;;;13.60;1.00;;;;;;5029036;28;19976;-70
2021/05/21 11:33:20;;;;;;;;;;;13.50;1.00;;;;;;5029487;28;19952;-70
2021/05/21 11:35:45;;;;;;;;;;;13.40;1.00;;;;;;5024544;28;19945;-71
2021/05/21 11:38:11;;;;;;;;;;;13.40;1.00;;;;;;5030344;28;20381;-71
2021/05/21 11:40:36;;;;;;;;;;;13.30;1.00;;;;;;5029240;28;19996;-70
2021/05/21 11:43:02;;;;;;;;;;;13.20;1.00;;;;;;5028995;28;20393;-70
2021/05/21 11:45:28;;;;;;;;;;;13.30;1.00;;;;;;5029169;28;19936;-71
2021/05/21 11:47:54;;;;;;;;;;;13.40;1.00;;;;;;5027104;28;19919;-71
2021/05/21 11:50:27;;;;;;;;;;;13.40;1.00;;;;;;5025604;28;20326;-71
2021/05/21 11:52:52;;;;;;;;;;;13.40;1.00;;;;;;5021003;28;19972;-71
2021/05/21 11:55:19;;;;;;;;;;;13.40;99.90;;;;;;5029422;28;20293;-70
2021/05/21 11:57:48;;;;;;;;;;;13.40;99.90;;;;;;5029069;28;19975;-70
2021/05/21 12:00:14;;;;;;;;;;;13.40;99.90;;;;;;5028991;28;19913;-71
2021/05/21 12:02:40;;;;;;;;;;;13.40;99.90;;;;;;5020537;28;19967;-71
2021/05/21 12:05:06;;;;;;;;;;;13.40;99.90;;;;;;5019443;28;20078;-71
2021/05/21 12:07:36;;;;;;;;;;;13.30;99.90;;;;;;5022152;28;19917;-71
2021/05/21 12:10:04;;;;;;;;;;;13.40;99.90;;;;;;5004738;28;19997;-71
2021/05/21 12:12:30;;;;;;;;;;;13.50;99.90;;;;;;5020936;28;19917;-71
2021/05/21 12:15:05;;;;;;;;;;;13.60;99.90;;;;;;5024130;28;20028;-71
2021/05/21 12:17:31;;;;;;;;;;;13.70;99.90;;;;;;5027591;28;19913;-72
2021/05/21 12:20:00;;;;;;;;;;;13.80;99.90;;;;;;5026822;28;20412;-69
2021/05/21 12:22:26;;;;;;;;;;;13.90;99.90;;;;;;5029065;28;19952;-71
2021/05/21 12:24:51;;;;;;;;;;;14.00;99.90;;;;;;5018312;28;20010;-71
2021/05/21 12:27:23;;;;;;;;;;;14.00;99.90;;;;;;5020093;28;19921;-71
2021/05/21 12:29:48;;;;;;;;;;;14.00;1.00;;;;;;5027426;28;19917;-70
2021/05/21 12:32:15;;;;;;;;;;;14.00;1.00;;;;;;5028196;28;19924;-70
2021/05/21 12:34:40;;;;;;;;;;;14.00;1.00;;;;;;5027888;28;19920;-71
2021/05/21 12:37:07;;;;;;;;;;;13.90;1.00;;;;;;5022472;28;19914;-72
2021/05/21 12:39:45;;;;;;;;;;;13.90;1.00;;;;;;5028683;28;19924;-70
2021/05/21 12:42:14;;;;;;;;;;;13.90;5.30;;;;;;5028238;28;19913;-72
2021/05/21 12:44:44;;;;;;;;;;;13.90;99.90;;;;;;5028742;28;19963;-72
2021/05/21 12:47:09;;;;;;;;;;;14.00;99.90;;;;;;5026421;28;20338;-71
2021/05/21 12:49:35;;;;;;;;;;;14.00;55.00;;;;;;5023031;28;20016;-72
2021/05/21 12:52:06;;;;;;;;;;;13.90;4.90;;;;;;5011531;28;19918;-71
2021/05/21 12:54:39;;;;;;;;;;;13.90;97.40;;;;;;5025326;28;19917;-71
2021/05/21 12:57:06;;;;;;;;;;;13.90;99.90;;;;;;5013001;28;20034;-70
2021/05/21 12:59:40;;;;;;;;;;;13.80;99.90;;;;;;5027733;28;19980;-72
2021/05/21 13:02:10;;;;;;;;;;;13.80;99.90;;;;;;5021715;28;20283;-72
2021/05/21 13:04:36;;;;;;;;;;;13.80;99.90;;;;;;5024226;28;19943;-72
2021/05/21 13:07:01;;;;;;;;;;;13.90;99.90;;;;;;5027416;28;19917;-72
2021/05/21 13:09:31;;;;;;;;;;;13.80;99.90;;;;;;5027832;28;20004;-71
2021/05/21 13:11:59;;;;;;;;;;;13.90;99.90;;;;;;5025668;28;21304;-72
2021/05/21 13:14:28;;;;;;;;;;;13.90;99.90;;;;;;5028114;28;19921;-71
2021/05/21 13:16:55;;;;;;;;;;;13.90;99.90;;;;;;5022236;28;20279;-71
2021/05/21 13:19:20;;;;;;;;;;;13.90;99.90;;;;;;5027003;28;19913;-73
2021/05/21 13:21:46;;;;;;;;;;;13.90;99.90;;;;;;5028284;28;19914;-73
2021/05/21 13:24:11;;;;;;;;;;;13.90;99.90;;;;;;5019726;28;19965;-71
2021/05/21 13:26:43;;;;;;;;;;;13.80;1.00;;;;;;5021394;28;20011;-71
2021/05/21 13:29:09;;;;;;;;;;;13.80;1.00;;;;;;5018566;28;19917;-70
2021/05/21 13:31:34;;;;;;;;;;;13.70;1.00;;;;;;5018589;28;19939;-71
2021/05/21 13:34:00;;;;;;;;;;;13.60;10.30;;;;;;5027453;28;19917;-72
2021/05/21 13:36:25;;;;;;;;;;;13.70;1.00;;;;;;5025821;28;20322;-71
2021/05/21 13:38:51;;;;;;;;;;;13.80;1.00;;;;;;5027604;28;19924;-72
2021/05/21 13:41:16;;;;;;;;;;;13.70;1.00;;;;;;5027392;28;19998;-72
2021/05/21 13:43:42;;;;;;;;;;;13.80;1.00;;;;;;5028043;28;20009;-71
2021/05/21 13:46:07;;;;;;;;;;;13.80;1.00;;;;;;5026500;28;20028;-71
2021/05/21 13:48:32;;;;;;;;;;;13.70;1.00;;;;;;5020505;28;19913;-70
2021/05/21 13:50:58;;;;;;;;;;;13.70;1.00;;;;;;5026423;28;19988;-70
2021/05/21 13:53:24;;;;;;;;;;;13.60;1.00;;;;;;5027775;28;20004;-71
2021/05/21 13:55:50;;;;;;;;;;;13.40;1.00;;;;;;5027680;28;20285;-71
2021/05/21 13:58:15;;;;;;;;;;;13.40;86.40;;;;;;5027515;28;19914;-71
2021/05/21 14:00:41;;;;;;;;;;;13.30;99.90;;;;;;5009513;28;19955;-71
2021/05/21 14:03:06;;;;;;;;;;;13.30;99.90;;;;;;5015976;28;19998;-72
2021/05/21 14:05:32;;;;;;;;;;;13.20;99.90;;;;;;5023264;28;19928;-71
2021/05/21 14:07:57;;;;;;;;;;;13.20;99.90;;;;;;5022883;28;19914;-71
2021/05/21 14:10:23;;;;;;;;;;;13.20;99.90;;;;;;5021570;28;20005;-72
2021/05/21 14:12:49;;;;;;;;;;;13.30;99.90;;;;;;5027096;28;19913;-70
2021/05/21 14:15:15;;;;;;;;;;;13.40;1.00;;;;;;5025491;28;19917;-71
2021/05/21 14:17:40;;;;;;;;;;;13.40;1.00;;;;;;5025590;28;19917;-72
2021/05/21 14:20:06;;;;;;;;;;;13.40;1.00;;;;;;5014744;28;19914;-70
2021/05/21 14:22:37;;;;;;;;;;;13.40;53.40;;;;;;5026618;28;19983;-71